sensor_id;sensor_type;location;lat;lon;timestamp;pressure;altitude;pressure_sealevel;temperature;humidity
72157;BME280;60035;52.122;5.406;2023-02-15T00:01:40;103182.63;;;0.92;94.08
72157;BME280;60035;52.122;5.406;2023-02-15T00:04:08;103174.19;;;0.91;94.04
72157;BME280;60035;52.122;5.406;2023-02-15T00:06:35;103169.06;;;0.90;93.95
72157;BME280;60035;52.122;5.406;2023-02-15T00:09:02;103167.13;;;0.84;93.87
72157;BME280;60035;52.122;5.406;2023-02-15T00:11:29;103166.25;;;0.83;94.08
72157;BME280;60035;52.122;5.406;2023-02-15T00:14:31;103165.31;;;0.81;94.21
72157;BME280;60035;52.122;5.406;2023-02-15T00:16:57;103165.09;;;0.77;93.98
72157;BME280;60035;52.122;5.406;2023-02-15T00:19:26;103159.81;;;0.72;94.11
72157;BME280;60035;52.122;5.406;2023-02-15T00:21:52;103160.78;;;0.74;94.18
72157;BME280;60035;52.122;5.406;2023-02-15T00:24:19;103163.38;;;0.76;94.26
72157;BME280;60035;52.122;5.406;2023-02-15T00:26:46;103160.59;;;0.71;94.30
72157;BME280;60035;52.122;5.406;2023-02-15T00:29:15;103165.25;;;0.63;94.38
72157;BME280;60035;52.122;5.406;2023-02-15T00:31:42;103165.69;;;0.55;94.10
72157;BME280;60035;52.122;5.406;2023-02-15T00:34:18;103165.53;;;0.52;94.28
72157;BME280;60035;52.122;5.406;2023-02-15T00:36:45;103161.28;;;0.51;94.15
72157;BME280;60035;52.122;5.406;2023-02-15T00:39:12;103153.66;;;0.49;94.46
72157;BME280;60035;52.122;5.406;2023-02-15T00:41:39;103151.75;;;0.45;94.38
72157;BME280;60035;52.122;5.406;2023-02-15T00:44:06;103151.75;;;0.45;94.45
72157;BME280;60035;52.122;5.406;2023-02-15T00:46:33;103141.59;;;0.43;94.81
72157;BME280;60035;52.122;5.406;2023-02-15T00:49:00;103143.41;;;0.46;94.45
72157;BME280;60035;52.122;5.406;2023-02-15T00:51:27;103141.47;;;0.40;94.49
72157;BME280;60035;52.122;5.406;2023-02-15T00:53:53;103136.97;;;0.35;94.84
72157;BME280;60035;52.122;5.406;2023-02-15T00:56:20;103139.66;;;0.38;94.71
72157;BME280;60035;52.122;5.406;2023-02-15T00:58:46;103140.34;;;0.35;94.87
72157;BME280;60035;52.122;5.406;2023-02-15T01:01:16;103147.78;;;0.32;94.98
72157;BME280;60035;52.122;5.406;2023-02-15T01:03:43;103140.75;;;0.26;94.82
72157;BME280;60035;52.122;5.406;2023-02-15T01:06:10;103142.03;;;0.18;95.13
72157;BME280;60035;52.122;5.406;2023-02-15T01:08:37;103147.06;;;0.18;95.09
72157;BME280;60035;52.122;5.406;2023-02-15T01:11:24;103142.72;;;0.15;94.98
72157;BME280;60035;52.122;5.406;2023-02-15T01:13:53;103141.81;;;0.13;95.17
72157;BME280;60035;52.122;5.406;2023-02-15T01:16:20;103146.13;;;0.16;95.42
72157;BME280;60035;52.122;5.406;2023-02-15T01:18:47;103135.16;;;0.15;94.97
72157;BME280;60035;52.122;5.406;2023-02-15T01:21:17;103129.09;;;0.12;95.09
72157;BME280;60035;52.122;5.406;2023-02-15T01:23:44;103128.25;;;0.11;95.55
72157;BME280;60035;52.122;5.406;2023-02-15T01:26:11;103124.00;;;0.10;95.41
72157;BME280;60035;52.122;5.406;2023-02-15T01:28:38;103116.44;;;0.10;95.41
72157;BME280;60035;52.122;5.406;2023-02-15T01:31:07;103120.75;;;0.13;95.66
72157;BME280;60035;52.122;5.406;2023-02-15T01:33:35;103107.53;;;0.17;95.75
72157;BME280;60035;52.122;5.406;2023-02-15T01:36:05;103113.59;;;0.21;95.62
72157;BME280;60035;52.122;5.406;2023-02-15T01:38:32;103107.53;;;0.17;95.37
72157;BME280;60035;52.122;5.406;2023-02-15T01:40:58;103107.38;;;0.14;95.07
72157;BME280;60035;52.122;5.406;2023-02-15T01:43:54;103108.34;;;0.16;95.35
72157;BME280;60035;52.122;5.406;2023-02-15T01:46:37;103103.19;;;0.14;95.29
72157;BME280;60035;52.122;5.406;2023-02-15T01:49:15;103094.72;;;0.12;95.46
72157;BME280;60035;52.122;5.406;2023-02-15T01:51:45;103094.00;;;0.15;95.30
72157;BME280;60035;52.122;5.406;2023-02-15T01:54:22;103085.75;;;0.18;95.45
72157;BME280;60035;52.122;5.406;2023-02-15T01:56:52;103087.47;;;0.19;95.62
72157;BME280;60035;52.122;5.406;2023-02-15T01:59:23;103094.78;;;0.14;95.17
72157;BME280;60035;52.122;5.406;2023-02-15T02:01:56;103096.22;;;0.09;95.57
72157;BME280;60035;52.122;5.406;2023-02-15T02:04:31;103092.84;;;0.08;95.53
72157;BME280;60035;52.122;5.406;2023-02-15T02:07:02;103092.66;;;0.05;95.36
72157;BME280;60035;52.122;5.406;2023-02-15T02:09:31;103094.00;;;-0.02;95.32
72157;BME280;60035;52.122;5.406;2023-02-15T02:11:58;103092.06;;;-0.07;95.31
72157;BME280;60035;52.122;5.406;2023-02-15T02:14:25;103087.50;;;-0.14;95.35
72157;BME280;60035;52.122;5.406;2023-02-15T02:17:00;103079.06;;;-0.15;95.28
72157;BME280;60035;52.122;5.406;2023-02-15T02:22:28;103076.47;;;-0.17;95.55
72157;BME280;60035;52.122;5.406;2023-02-15T02:27:46;103069.88;;;-0.14;95.70
72157;BME280;60035;52.122;5.406;2023-02-15T02:33:20;103062.53;;;-0.10;95.86
72157;BME280;60035;52.122;5.406;2023-02-15T02:36:08;103061.50;;;-0.13;95.93
72157;BME280;60035;52.122;5.406;2023-02-15T02:49:36;103043.34;;;-0.24;96.36
72157;BME280;60035;52.122;5.406;2023-02-15T02:52:34;103041.63;;;-0.25;96.36
72157;BME280;60035;52.122;5.406;2023-02-15T02:55:04;103034.16;;;-0.24;96.32
72157;BME280;60035;52.122;5.406;2023-02-15T02:57:32;103036.44;;;-0.28;96.20
72157;BME280;60035;52.122;5.406;2023-02-15T03:00:02;103040.53;;;-0.30;96.13
72157;BME280;60035;52.122;5.406;2023-02-15T03:02:37;103033.69;;;-0.33;96.22
72157;BME280;60035;52.122;5.406;2023-02-15T03:05:09;103031.88;;;-0.36;96.40
72157;BME280;60035;52.122;5.406;2023-02-15T03:07:39;103044.47;;;-0.36;96.19
72157;BME280;60035;52.122;5.406;2023-02-15T03:10:08;103030.06;;;-0.38;96.17
72157;BME280;60035;52.122;5.406;2023-02-15T03:12:39;103031.00;;;-0.36;96.15
72157;BME280;60035;52.122;5.406;2023-02-15T03:15:13;103030.06;;;-0.38;95.92
72157;BME280;60035;52.122;5.406;2023-02-15T03:17:43;103018.28;;;-0.39;96.36
72157;BME280;60035;52.122;5.406;2023-02-15T03:20:15;103016.47;;;-0.42;96.07
72157;BME280;60035;52.122;5.406;2023-02-15T03:22:51;103018.03;;;-0.44;96.14
72157;BME280;60035;52.122;5.406;2023-02-15T03:25:43;103006.16;;;-0.46;96.24
72157;BME280;60035;52.122;5.406;2023-02-15T03:28:22;103004.44;;;-0.47;96.19
72157;BME280;60035;52.122;5.406;2023-02-15T03:30:53;103007.81;;;-0.47;96.19
72157;BME280;60035;52.122;5.406;2023-02-15T03:33:21;103010.41;;;-0.45;96.27
72157;BME280;60035;52.122;5.406;2023-02-15T03:35:59;103004.50;;;-0.46;96.49
72157;BME280;60035;52.122;5.406;2023-02-15T03:38:36;103000.97;;;-0.49;96.21
72157;BME280;60035;52.122;5.406;2023-02-15T03:41:06;103000.19;;;-0.48;96.28
72157;BME280;60035;52.122;5.406;2023-02-15T03:46:15;103001.75;;;-0.51;96.08
72157;BME280;60035;52.122;5.406;2023-02-15T03:48:50;103003.47;;;-0.49;96.06
72157;BME280;60035;52.122;5.406;2023-02-15T03:51:21;103000.97;;;-0.49;95.96
72157;BME280;60035;52.122;5.406;2023-02-15T03:54:13;102999.16;;;-0.52;96.02
72157;BME280;60035;52.122;5.406;2023-02-15T03:57:01;102997.41;;;-0.53;96.06
72157;BME280;60035;52.122;5.406;2023-02-15T03:59:47;102994.81;;;-0.55;95.82
72157;BME280;60035;52.122;5.406;2023-02-15T04:02:42;102992.94;;;-0.59;95.76
72157;BME280;60035;52.122;5.406;2023-02-15T04:05:11;102988.69;;;-0.60;95.88
72157;BME280;60035;52.122;5.406;2023-02-15T04:07:38;102990.22;;;-0.63;95.86
72157;BME280;60035;52.122;5.406;2023-02-15T04:10:05;102988.41;;;-0.66;95.78
72157;BME280;60035;52.122;5.406;2023-02-15T04:12:50;102979.88;;;-0.68;95.73
72157;BME280;60035;52.122;5.406;2023-02-15T04:15:17;102982.47;;;-0.67;96.04
72157;BME280;60035;52.122;5.406;2023-02-15T04:18:03;102979.81;;;-0.70;95.87
72157;BME280;60035;52.122;5.406;2023-02-15T04:20:29;102982.19;;;-0.73;95.54
72157;BME280;60035;52.122;5.406;2023-02-15T04:23:14;102985.28;;;-0.77;96.01
72157;BME280;60035;52.122;5.406;2023-02-15T04:26:03;102986.88;;;-0.79;95.98
72157;BME280;60035;52.122;5.406;2023-02-15T04:28:30;102986.19;;;-0.76;95.98
72157;BME280;60035;52.122;5.406;2023-02-15T04:30:57;102980.38;;;-0.75;96.14
72157;BME280;60035;52.122;5.406;2023-02-15T04:33:23;102986.19;;;-0.76;96.06
72157;BME280;60035;52.122;5.406;2023-02-15T04:35:50;102987.75;;;-0.78;96.06
72157;BME280;60035;52.122;5.406;2023-02-15T04:38:16;102989.63;;;-0.74;95.92
72157;BME280;60035;52.122;5.406;2023-02-15T04:40:43;102982.88;;;-0.75;96.35
72157;BME280;60035;52.122;5.406;2023-02-15T04:43:10;102972.00;;;-0.74;96.24
72157;BME280;60035;52.122;5.406;2023-02-15T04:45:36;102965.09;;;-0.78;96.15
72157;BME280;60035;52.122;5.406;2023-02-15T04:48:03;102963.38;;;-0.79;95.79
72157;BME280;60035;52.122;5.406;2023-02-15T04:50:29;102966.69;;;-0.80;95.99
72157;BME280;60035;52.122;5.406;2023-02-15T04:52:56;102960.63;;;-0.84;95.97
72157;BME280;60035;52.122;5.406;2023-02-15T04:55:22;102963.13;;;-0.84;96.23
72157;BME280;60035;52.122;5.406;2023-02-15T04:57:48;102954.81;;;-0.83;96.16
72157;BME280;60035;52.122;5.406;2023-02-15T05:00:15;102952.06;;;-0.88;96.23
72157;BME280;60035;52.122;5.406;2023-02-15T05:02:43;102957.72;;;-0.92;96.13
72157;BME280;60035;52.122;5.406;2023-02-15T05:05:09;102951.03;;;-0.91;96.30
72157;BME280;60035;52.122;5.406;2023-02-15T05:07:39;102959.28;;;-0.94;96.53
72157;BME280;60035;52.122;5.406;2023-02-15T05:10:05;102955.03;;;-0.95;96.73
72157;BME280;60035;52.122;5.406;2023-02-15T05:12:32;102959.28;;;-0.94;97.01
72157;BME280;60035;52.122;5.406;2023-02-15T05:14:58;102953.31;;;-0.96;96.87
72157;BME280;60035;52.122;5.406;2023-02-15T05:17:25;102954.00;;;-0.98;96.81
72157;BME280;60035;52.122;5.406;2023-02-15T05:19:52;102950.72;;;-0.97;97.06
72157;BME280;60035;52.122;5.406;2023-02-15T05:22:18;102942.28;;;-0.98;97.08
72157;BME280;60035;52.122;5.406;2023-02-15T05:24:45;102946.53;;;-0.97;96.97
72157;BME280;60035;52.122;5.406;2023-02-15T05:27:30;102943.41;;;-0.93;96.89
72157;BME280;60035;52.122;5.406;2023-02-15T05:30:15;102944.03;;;-0.97;96.67
72157;BME280;60035;52.122;5.406;2023-02-15T05:32:42;102945.75;;;-0.96;96.53
72157;BME280;60035;52.122;5.406;2023-02-15T05:35:13;102946.53;;;-0.97;96.43
72157;BME280;60035;52.122;5.406;2023-02-15T05:37:40;102948.97;;;-0.98;96.51
72157;BME280;60035;52.122;5.406;2023-02-15T05:40:07;102944.03;;;-0.97;96.29
72157;BME280;60035;52.122;5.406;2023-02-15T05:42:33;102947.31;;;-0.98;96.28
72157;BME280;60035;52.122;5.406;2023-02-15T05:45:00;102949.06;;;-0.97;96.31
72157;BME280;60035;52.122;5.406;2023-02-15T05:47:26;102949.06;;;-0.97;96.48
72157;BME280;60035;52.122;5.406;2023-02-15T05:49:53;102950.78;;;-0.96;96.56
72157;BME280;60035;52.122;5.406;2023-02-15T05:52:19;102952.44;;;-0.96;96.59
72157;BME280;60035;52.122;5.406;2023-02-15T05:54:46;102950.66;;;-0.99;96.49
72157;BME280;60035;52.122;5.406;2023-02-15T05:57:12;102948.97;;;-0.98;96.10
72157;BME280;60035;52.122;5.406;2023-02-15T05:59:39;102948.97;;;-0.98;96.20
72157;BME280;60035;52.122;5.406;2023-02-15T06:02:05;102947.31;;;-0.98;95.99
72157;BME280;60035;52.122;5.406;2023-02-15T06:04:33;102939.88;;;-0.96;96.22
72157;BME280;60035;52.122;5.406;2023-02-15T06:06:59;102941.50;;;-0.97;96.26
72157;BME280;60035;52.122;5.406;2023-02-15T06:09:25;102947.16;;;-1.01;96.06
72157;BME280;60035;52.122;5.406;2023-02-15T06:11:52;102941.03;;;-1.06;95.77
72157;BME280;60035;52.122;5.406;2023-02-15T06:14:18;102942.63;;;-1.08;95.81
72157;BME280;60035;52.122;5.406;2023-02-15T06:16:45;102941.66;;;-1.10;96.39
72157;BME280;60035;52.122;5.406;2023-02-15T06:19:12;102940.03;;;-1.10;96.19
72157;BME280;60035;52.122;5.406;2023-02-15T06:21:39;102940.09;;;-1.08;96.18
72157;BME280;60035;52.122;5.406;2023-02-15T06:24:05;102932.72;;;-1.05;96.03
72157;BME280;60035;52.122;5.406;2023-02-15T06:26:31;102935.38;;;-1.02;96.40
72157;BME280;60035;52.122;5.406;2023-02-15T06:28:58;102931.06;;;-1.05;96.20
72157;BME280;60035;52.122;5.406;2023-02-15T06:31:25;102935.94;;;-1.08;96.02
72157;BME280;60035;52.122;5.406;2023-02-15T06:33:51;102939.28;;;-1.07;96.14
72157;BME280;60035;52.122;5.406;2023-02-15T06:36:18;102929.09;;;-1.10;96.09
72157;BME280;60035;52.122;5.406;2023-02-15T06:38:44;102934.25;;;-1.07;96.45
72157;BME280;60035;52.122;5.406;2023-02-15T06:41:11;102929.09;;;-1.10;96.11
72157;BME280;60035;52.122;5.406;2023-02-15T06:43:37;102926.50;;;-1.12;96.46
72157;BME280;60035;52.122;5.406;2023-02-15T06:46:06;102925.66;;;-1.12;96.38
72157;BME280;60035;52.122;5.406;2023-02-15T06:48:32;102936.78;;;-1.07;96.61
72157;BME280;60035;52.122;5.406;2023-02-15T06:50:59;102928.47;;;-1.06;96.54
72157;BME280;60035;52.122;5.406;2023-02-15T06:53:25;102933.56;;;-1.05;96.26
72157;BME280;60035;52.122;5.406;2023-02-15T06:55:51;102933.50;;;-1.06;96.26
72157;BME280;60035;52.122;5.406;2023-02-15T06:58:18;102932.63;;;-1.07;96.40
72157;BME280;60035;52.122;5.406;2023-02-15T07:00:44;102927.59;;;-1.07;96.28
72157;BME280;60035;52.122;5.406;2023-02-15T07:03:13;102929.34;;;-1.06;96.29
72157;BME280;60035;52.122;5.406;2023-02-15T07:05:40;102926.91;;;-1.04;96.36
72157;BME280;60035;52.122;5.406;2023-02-15T07:08:07;102924.69;;;-0.98;96.30
72157;BME280;60035;52.122;5.406;2023-02-15T07:10:33;102934.16;;;-0.94;96.18
72157;BME280;60035;52.122;5.406;2023-02-15T07:13:00;102934.16;;;-0.94;95.74
72157;BME280;60035;52.122;5.406;2023-02-15T07:15:26;102930.69;;;-0.96;95.76
72157;BME280;60035;52.122;5.406;2023-02-15T07:17:53;102934.28;;;-0.91;96.33
72157;BME280;60035;52.122;5.406;2023-02-15T07:20:21;102925.97;;;-0.90;96.32
72157;BME280;60035;52.122;5.406;2023-02-15T07:22:48;102926.81;;;-0.89;96.33
72157;BME280;60035;52.122;5.406;2023-02-15T07:25:16;102926.91;;;-0.88;96.75
72157;BME280;60035;52.122;5.406;2023-02-15T07:27:42;102923.69;;;-0.85;96.67
72157;BME280;60035;52.122;5.406;2023-02-15T07:30:13;102909.53;;;-0.83;97.30
72157;BME280;60035;52.122;5.406;2023-02-15T07:32:40;102908.97;;;-0.77;97.59
72157;BME280;60035;52.122;5.406;2023-02-15T07:35:30;102905.06;;;-0.72;97.29
72157;BME280;60035;52.122;5.406;2023-02-15T07:37:56;102897.97;;;-0.63;97.38
72157;BME280;60035;52.122;5.406;2023-02-15T07:40:22;102899.22;;;-0.55;97.31
72157;BME280;60035;52.122;5.406;2023-02-15T07:42:50;102895.91;;;-0.54;97.16
72157;BME280;60035;52.122;5.406;2023-02-15T07:45:20;102894.41;;;-0.50;97.49
72157;BME280;60035;52.122;5.406;2023-02-15T07:47:46;102895.41;;;-0.46;97.55
72157;BME280;60035;52.122;5.406;2023-02-15T07:50:13;102894.81;;;-0.42;97.70
72157;BME280;60035;52.122;5.406;2023-02-15T07:52:40;102893.28;;;-0.39;97.80
72157;BME280;60035;52.122;5.406;2023-02-15T07:55:06;102888.56;;;-0.32;97.51
72157;BME280;60035;52.122;5.406;2023-02-15T07:57:34;102888.03;;;-0.25;97.80
72157;BME280;60035;52.122;5.406;2023-02-15T08:00:01;102874.97;;;-0.18;97.83
72157;BME280;60035;52.122;5.406;2023-02-15T08:02:28;102879.44;;;-0.12;98.08
72157;BME280;60035;52.122;5.406;2023-02-15T08:04:56;102879.81;;;-0.05;97.96
72157;BME280;60035;52.122;5.406;2023-02-15T08:07:22;102875.22;;;0.05;98.16
72157;BME280;60035;52.122;5.406;2023-02-15T08:09:49;102882.41;;;0.15;98.15
72157;BME280;60035;52.122;5.406;2023-02-15T08:12:15;102872.03;;;0.27;98.67
72157;BME280;60035;52.122;5.406;2023-02-15T08:14:42;102871.72;;;0.39;98.79
72157;BME280;60035;52.122;5.406;2023-02-15T08:17:08;102866.22;;;0.47;99.08
72157;BME280;60035;52.122;5.406;2023-02-15T08:19:35;102867.53;;;0.57;99.25
72157;BME280;60035;52.122;5.406;2023-02-15T08:22:04;102876.41;;;0.69;99.35
72157;BME280;60035;52.122;5.406;2023-02-15T08:24:33;102866.81;;;0.79;99.47
72157;BME280;60035;52.122;5.406;2023-02-15T08:27:00;102868.97;;;0.91;99.61
72157;BME280;60035;52.122;5.406;2023-02-15T08:29:32;102869.59;;;1.05;99.85
72157;BME280;60035;52.122;5.406;2023-02-15T08:32:01;102861.81;;;1.20;100.00
72157;BME280;60035;52.122;5.406;2023-02-15T08:34:31;102868.44;;;1.38;100.00
72157;BME280;60035;52.122;5.406;2023-02-15T08:36:59;102862.47;;;1.57;100.00
72157;BME280;60035;52.122;5.406;2023-02-15T08:39:25;102863.19;;;1.75;100.00
72157;BME280;60035;52.122;5.406;2023-02-15T08:41:52;102858.94;;;1.95;100.00
72157;BME280;60035;52.122;5.406;2023-02-15T08:44:19;102857.81;;;2.10;100.00
72157;BME280;60035;52.122;5.406;2023-02-15T08:46:48;102848.78;;;2.16;100.00
72157;BME280;60035;52.122;5.406;2023-02-15T08:49:17;102844.78;;;2.22;100.00
72157;BME280;60035;52.122;5.406;2023-02-15T08:51:44;102845.91;;;2.30;100.00
72157;BME280;60035;52.122;5.406;2023-02-15T08:54:17;102841.19;;;2.39;100.00
72157;BME280;60035;52.122;5.406;2023-02-15T08:56:45;102840.03;;;2.54;100.00
72157;BME280;60035;52.122;5.406;2023-02-15T08:59:17;102840.41;;;2.64;100.00
72157;BME280;60035;52.122;5.406;2023-02-15T09:01:48;102840.69;;;2.72;100.00
72157;BME280;60035;52.122;5.406;2023-02-15T09:04:15;102843.44;;;2.78;100.00
72157;BME280;60035;52.122;5.406;2023-02-15T09:06:45;102834.50;;;2.88;100.00
72157;BME280;60035;52.122;5.406;2023-02-15T09:09:14;102832.34;;;2.99;100.00
72157;BME280;60035;52.122;5.406;2023-02-15T09:11:43;102827.53;;;3.07;99.98
72157;BME280;60035;52.122;5.406;2023-02-15T09:14:12;102828.59;;;3.13;99.67
72157;BME280;60035;52.122;5.406;2023-02-15T09:16:43;102820.38;;;3.19;99.79
72157;BME280;60035;52.122;5.406;2023-02-15T09:19:17;102822.28;;;3.26;99.64
72157;BME280;60035;52.122;5.406;2023-02-15T09:21:44;102817.53;;;3.36;99.76
72157;BME280;60035;52.122;5.406;2023-02-15T09:24:13;102824.59;;;3.46;99.24
72157;BME280;60035;52.122;5.406;2023-02-15T09:26:45;102820.69;;;3.56;99.33
72157;BME280;60035;52.122;5.406;2023-02-15T09:29:13;102818.50;;;3.66;98.95
72157;BME280;60035;52.122;5.406;2023-02-15T09:31:42;102818.88;;;3.79;99.04
72157;BME280;60035;52.122;5.406;2023-02-15T09:34:12;102816.72;;;3.91;98.50
72157;BME280;60035;52.122;5.406;2023-02-15T09:36:39;102820.41;;;4.01;97.90
72157;BME280;60035;52.122;5.406;2023-02-15T09:39:13;102827.41;;;4.10;97.43
72157;BME280;60035;52.122;5.406;2023-02-15T09:53:14;102816.00;;;4.55;96.00
72157;BME280;60035;52.122;5.406;2023-02-15T09:56:13;102803.69;;;4.69;95.62
72157;BME280;60035;52.122;5.406;2023-02-15T10:12:29;102825.56;;;5.30;92.26
72157;BME280;60035;52.122;5.406;2023-02-15T10:28:06;102821.66;;;6.18;89.93
72157;BME280;60035;52.122;5.406;2023-02-15T10:30:48;102812.63;;;6.32;88.74
72157;BME280;60035;52.122;5.406;2023-02-15T10:36:24;102819.09;;;6.61;87.34
72157;BME280;60035;52.122;5.406;2023-02-15T10:55:57;102819.94;;;7.61;83.93
72157;BME280;60035;52.122;5.406;2023-02-15T11:06:33;102800.09;;;8.03;81.19
72157;BME280;60035;52.122;5.406;2023-02-15T11:09:08;102790.91;;;8.15;81.23
72157;BME280;60035;52.122;5.406;2023-02-15T11:11:37;102789.31;;;8.25;80.21
72157;BME280;60035;52.122;5.406;2023-02-15T11:16:57;102786.22;;;8.51;80.14
72157;BME280;60035;52.122;5.406;2023-02-15T11:19:30;102784.69;;;8.65;79.36
72157;BME280;60035;52.122;5.406;2023-02-15T11:22:01;102780.41;;;8.66;77.90
72157;BME280;60035;52.122;5.406;2023-02-15T11:24:30;102774.50;;;8.70;78.46
72157;BME280;60035;52.122;5.406;2023-02-15T11:27:19;102766.03;;;8.74;78.67
72157;BME280;60035;52.122;5.406;2023-02-15T11:30:03;102772.03;;;8.79;78.43
72157;BME280;60035;52.122;5.406;2023-02-15T11:32:44;102763.59;;;8.85;78.42
72157;BME280;60035;52.122;5.406;2023-02-15T11:40:29;102753.59;;;9.16;76.97
72157;BME280;60035;52.122;5.406;2023-02-15T11:43:00;102746.00;;;9.28;76.59
72157;BME280;60035;52.122;5.406;2023-02-15T11:45:32;102734.22;;;9.47;75.82
72157;BME280;60035;52.122;5.406;2023-02-15T11:48:01;102723.19;;;9.64;75.37
72157;BME280;60035;52.122;5.406;2023-02-15T11:50:34;102715.56;;;9.76;74.66
72157;BME280;60035;52.122;5.406;2023-02-15T11:53:04;102713.03;;;9.82;73.78
72157;BME280;60035;52.122;5.406;2023-02-15T11:55:35;102706.25;;;9.86;73.27
72157;BME280;60035;52.122;5.406;2023-02-15T11:58:28;102708.00;;;9.95;72.71
72157;BME280;60035;52.122;5.406;2023-02-15T12:03:50;102692.69;;;10.18;72.19
72157;BME280;60035;52.122;5.406;2023-02-15T12:06:32;102687.56;;;10.27;71.37
72157;BME280;60035;52.122;5.406;2023-02-15T12:09:25;102702.09;;;10.30;71.08
72157;BME280;60035;52.122;5.406;2023-02-15T12:14:54;102695.31;;;10.55;70.99
72157;BME280;60035;52.122;5.406;2023-02-15T12:17:24;102681.66;;;10.58;70.84
72157;BME280;60035;52.122;5.406;2023-02-15T12:19:55;102685.91;;;10.63;70.95
72157;BME280;60035;52.122;5.406;2023-02-15T12:22:29;102691.06;;;10.71;70.74
72157;BME280;60035;52.122;5.406;2023-02-15T12:24:58;102677.41;;;10.72;69.68
72157;BME280;60035;52.122;5.406;2023-02-15T12:27:34;102685.94;;;10.77;69.65
72157;BME280;60035;52.122;5.406;2023-02-15T12:30:18;102685.94;;;10.87;69.01
72157;BME280;60035;52.122;5.406;2023-02-15T12:32:50;102674.78;;;11.06;68.66
72157;BME280;60035;52.122;5.406;2023-02-15T12:35:29;102688.44;;;11.17;68.41
72157;BME280;60035;52.122;5.406;2023-02-15T12:40:56;102666.13;;;11.41;68.05
72157;BME280;60035;52.122;5.406;2023-02-15T12:43:37;102668.69;;;11.49;67.80
72157;BME280;60035;52.122;5.406;2023-02-15T12:46:24;102665.22;;;11.58;67.46
72157;BME280;60035;52.122;5.406;2023-02-15T12:49:18;102658.34;;;11.61;67.03
72157;BME280;60035;52.122;5.406;2023-02-15T12:51:51;102654.03;;;11.73;66.79
72157;BME280;60035;52.122;5.406;2023-02-15T12:56:49;102653.97;;;11.85;66.84
72157;BME280;60035;52.122;5.406;2023-02-15T12:59:15;102663.38;;;11.86;66.40
72157;BME280;60035;52.122;5.406;2023-02-15T13:01:48;102661.66;;;11.88;66.58
72157;BME280;60035;52.122;5.406;2023-02-15T13:04:24;102655.75;;;11.72;66.14
72157;BME280;60035;52.122;5.406;2023-02-15T13:06:54;102660.97;;;11.55;66.73
72157;BME280;60035;52.122;5.406;2023-02-15T13:09:35;102655.03;;;11.41;66.58
72157;BME280;60035;52.122;5.406;2023-02-15T13:12:23;102647.38;;;11.33;67.74
72157;BME280;60035;52.122;5.406;2023-02-15T13:14:54;102638.81;;;11.31;67.81
72157;BME280;60035;52.122;5.406;2023-02-15T13:17:26;102637.09;;;11.34;68.10
72157;BME280;60035;52.122;5.406;2023-02-15T13:19:58;102625.91;;;11.48;67.87
72157;BME280;60035;52.122;5.406;2023-02-15T13:22:55;102625.88;;;11.62;68.11
72157;BME280;60035;52.122;5.406;2023-02-15T13:25:29;102625.88;;;11.60;67.68
72157;BME280;60035;52.122;5.406;2023-02-15T13:28:01;102625.88;;;11.56;68.12
72157;BME280;60035;52.122;5.406;2023-02-15T13:30:34;102631.03;;;11.56;67.86
72157;BME280;60035;52.122;5.406;2023-02-15T13:33:13;102633.59;;;11.54;67.81
72157;BME280;60035;52.122;5.406;2023-02-15T13:38:45;102631.06;;;11.45;67.87
72157;BME280;60035;52.122;5.406;2023-02-15T13:41:17;102626.78;;;11.48;67.86
72157;BME280;60035;52.122;5.406;2023-02-15T13:44:03;102621.66;;;11.47;68.04
72157;BME280;60035;52.122;5.406;2023-02-15T13:47:16;102619.13;;;11.39;67.96
72157;BME280;60035;52.122;5.406;2023-02-15T13:50:18;102617.44;;;11.38;68.35
72157;BME280;60035;52.122;5.406;2023-02-15T13:52:47;102619.13;;;11.41;68.57
72157;BME280;60035;52.122;5.406;2023-02-15T13:58:16;102612.25;;;11.43;68.41
72157;BME280;60035;52.122;5.406;2023-02-15T14:03:38;102611.41;;;11.44;68.42
72157;BME280;60035;52.122;5.406;2023-02-15T14:11:52;102612.28;;;11.46;66.99
72157;BME280;60035;52.122;5.406;2023-02-15T14:14:46;102607.16;;;11.44;66.81
72157;BME280;60035;52.122;5.406;2023-02-15T14:20:02;102605.44;;;11.43;67.00
72157;BME280;60035;52.122;5.406;2023-02-15T14:22:44;102619.97;;;11.44;67.39
72157;BME280;60035;52.122;5.406;2023-02-15T14:25:36;102610.50;;;11.49;67.51
72157;BME280;60035;52.122;5.406;2023-02-15T14:31:38;102597.75;;;11.43;67.72
72157;BME280;60035;52.122;5.406;2023-02-15T14:34:17;102602.03;;;11.38;67.80
72157;BME280;60035;52.122;5.406;2023-02-15T14:36:46;102605.47;;;11.37;67.85
72157;BME280;60035;52.122;5.406;2023-02-15T14:42:25;102598.66;;;11.25;67.73
72157;BME280;60035;52.122;5.406;2023-02-15T14:45:09;102598.72;;;11.14;67.91
72157;BME280;60035;52.122;5.406;2023-02-15T14:47:44;102597.00;;;11.13;67.85
72157;BME280;60035;52.122;5.406;2023-02-15T14:53:22;102592.72;;;11.12;67.83
72157;BME280;60035;52.122;5.406;2023-02-15T15:01:30;102595.34;;;10.98;69.17
72157;BME280;60035;52.122;5.406;2023-02-15T15:04:00;102599.59;;;10.96;69.24
72157;BME280;60035;52.122;5.406;2023-02-15T15:06:37;102597.94;;;10.95;69.40
72157;BME280;60035;52.122;5.406;2023-02-15T15:09:25;102597.91;;;10.94;69.39
72157;BME280;60035;52.122;5.406;2023-02-15T15:11:55;102608.19;;;10.89;69.55
72157;BME280;60035;52.122;5.406;2023-02-15T15:14:41;102603.91;;;10.88;69.37
72157;BME280;60035;52.122;5.406;2023-02-15T15:17:51;102598.78;;;10.88;69.39
72157;BME280;60035;52.122;5.406;2023-02-15T15:20:11;102601.38;;;10.85;69.83
72157;BME280;60035;52.122;5.406;2023-02-15T15:22:41;102606.50;;;10.83;69.82
72157;BME280;60035;52.122;5.406;2023-02-15T15:27:55;102602.22;;;10.76;69.68
72157;BME280;60035;52.122;5.406;2023-02-15T15:42:01;102598.84;;;10.57;69.98
72157;BME280;60035;52.122;5.406;2023-02-15T15:47:33;102590.31;;;10.47;70.30
72157;BME280;60035;52.122;5.406;2023-02-15T15:50:12;102592.00;;;10.41;70.54
72157;BME280;60035;52.122;5.406;2023-02-15T15:52:43;102590.28;;;10.33;70.32
72157;BME280;60035;52.122;5.406;2023-02-15T15:55:21;102597.97;;;10.26;70.60